createdAt,value
2023-04-28T00:00:19.569Z,7.50
2023-04-28T00:02:50.496Z,7.40
2023-04-28T00:05:19.983Z,7.30
2023-04-28T00:07:49.226Z,7.20
2023-04-28T00:10:18.613Z,7.20
2023-04-28T00:12:47.813Z,7.20
2023-04-28T00:15:17.152Z,7.10
2023-04-28T00:17:46.517Z,7.10
2023-04-28T00:20:17.257Z,7.00
2023-04-28T00:22:46.510Z,7.00
2023-04-28T00:25:15.837Z,7.00
2023-04-28T00:27:45.073Z,6.90
2023-04-28T00:30:14.982Z,6.90
2023-04-28T00:32:44.352Z,6.90
2023-04-28T00:35:13.578Z,6.90
2023-04-28T00:37:44.364Z,6.80
2023-04-28T00:40:14.254Z,6.80
2023-04-28T00:42:44.205Z,6.70
2023-04-28T00:45:13.848Z,6.70
2023-04-28T00:47:44.511Z,6.60
2023-04-28T00:50:14.533Z,6.60
2023-04-28T00:52:45.567Z,6.50
2023-04-28T00:55:17.658Z,6.50
2023-04-28T00:57:47.615Z,6.40
2023-04-28T01:00:17.678Z,6.40
2023-04-28T01:02:47.063Z,6.40
2023-04-28T01:05:16.885Z,6.40
2023-04-28T01:07:48.000Z,6.40
2023-04-28T01:10:17.547Z,6.40
2023-04-28T01:12:46.923Z,6.40
2023-04-28T01:15:18.924Z,6.30
2023-04-28T01:17:49.285Z,6.30
2023-04-28T01:20:18.805Z,6.30
2023-04-28T01:22:49.777Z,6.20
2023-04-28T01:25:21.605Z,6.20
2023-04-28T01:27:51.293Z,6.20
2023-04-28T01:30:21.337Z,6.20
2023-04-28T01:32:50.455Z,6.20
2023-04-28T01:35:19.640Z,6.20
2023-04-28T01:37:48.833Z,6.20
2023-04-28T01:40:18.229Z,6.10
2023-04-28T01:42:49.005Z,6.10
2023-04-28T01:45:18.294Z,6.00
2023-04-28T01:47:47.760Z,6.00
2023-04-28T01:50:17.030Z,6.00
2023-04-28T01:52:46.241Z,6.00
2023-04-28T01:55:15.991Z,5.90
2023-04-28T01:57:45.397Z,5.90
2023-04-28T02:00:16.855Z,5.90
2023-04-28T02:02:51.626Z,5.90
2023-04-28T02:05:21.067Z,5.90
2023-04-28T02:07:52.001Z,5.80
2023-04-28T02:10:22.068Z,5.90
2023-04-28T02:12:51.542Z,5.80
2023-04-28T02:15:22.669Z,5.80
2023-04-28T02:17:51.856Z,5.80
2023-04-28T02:20:21.653Z,5.70
2023-04-28T02:22:51.634Z,5.70
2023-04-28T02:25:21.303Z,5.80
2023-04-28T02:27:50.673Z,5.80
2023-04-28T02:30:21.741Z,5.70
2023-04-28T02:32:51.211Z,5.70
2023-04-28T02:35:20.686Z,5.70
2023-04-28T02:37:50.039Z,5.70
2023-04-28T02:40:21.332Z,5.60
2023-04-28T02:42:50.776Z,5.60
2023-04-28T02:45:21.633Z,5.60
2023-04-28T02:47:51.042Z,5.50
2023-04-28T02:50:20.736Z,5.60
2023-04-28T02:52:49.972Z,5.60
2023-04-28T02:55:24.386Z,5.50
2023-04-28T02:57:55.066Z,5.50
2023-04-28T03:00:26.052Z,5.60
2023-04-28T03:02:56.312Z,5.50
2023-04-28T03:05:25.715Z,5.40
2023-04-28T03:07:55.173Z,5.30
2023-04-28T03:10:24.710Z,5.30
2023-04-28T03:12:54.160Z,5.40
2023-04-28T03:15:24.846Z,5.30
2023-04-28T03:17:54.231Z,5.30
2023-04-28T03:20:23.394Z,5.40
2023-04-28T03:22:52.452Z,5.50
2023-04-28T03:25:21.807Z,5.50
2023-04-28T03:27:53.575Z,5.60
2023-04-28T03:30:24.518Z,5.70
2023-04-28T03:32:53.819Z,5.90
2023-04-28T03:35:23.175Z,6.30
2023-04-28T03:37:52.487Z,6.80
2023-04-28T03:40:21.808Z,7.00
2023-04-28T03:43:13.806Z,7.10
2023-04-28T03:45:59.649Z,7.00
2023-04-28T03:48:29.041Z,7.00
2023-04-28T03:50:58.433Z,6.90
2023-04-28T03:53:28.041Z,6.90
2023-04-28T03:55:57.332Z,6.80
2023-04-28T03:58:28.300Z,6.90
2023-04-28T04:01:01.183Z,6.90
2023-04-28T04:03:30.675Z,7.00
2023-04-28T04:06:00.857Z,7.00
2023-04-28T04:08:30.170Z,7.10
2023-04-28T04:10:59.487Z,7.10
2023-04-28T04:13:28.778Z,7.30
2023-04-28T04:15:59.986Z,8.40
2023-04-28T04:18:29.977Z,10.10
2023-04-28T04:21:21.326Z,11.90
2023-04-28T04:23:52.849Z,13.70
2023-04-28T04:26:22.608Z,14.80
2023-04-28T04:28:53.177Z,15.90
2023-04-28T04:31:24.347Z,16.80
2023-04-28T04:33:53.978Z,17.50
2023-04-28T04:36:24.422Z,18.40
2023-04-28T04:38:54.699Z,19.30
2023-04-28T04:41:25.176Z,20.10
2023-04-28T04:44:06.123Z,20.60
2023-04-28T04:46:43.110Z,20.90
2023-04-28T04:49:12.367Z,21.30
2023-04-28T04:51:41.816Z,21.80
2023-04-28T04:54:11.713Z,22.50
2023-04-28T04:56:43.834Z,22.80
2023-04-28T04:59:15.073Z,23.10
2023-04-28T05:01:59.795Z,23.90
2023-04-28T05:04:29.494Z,24.40
2023-04-28T05:06:59.009Z,24.60
2023-04-28T05:09:29.322Z,24.90
2023-04-28T05:11:58.575Z,25.50
2023-04-28T05:14:28.125Z,25.10
2023-04-28T05:16:59.130Z,25.60
2023-04-28T05:19:34.063Z,26.00
2023-04-28T05:22:04.130Z,26.90
2023-04-28T05:24:34.512Z,27.20
2023-04-28T05:27:04.689Z,27.60
2023-04-28T05:29:33.949Z,27.70
2023-04-28T05:32:04.740Z,27.40
2023-04-28T05:34:34.872Z,27.20
2023-04-28T05:37:04.342Z,27.80
2023-04-28T05:39:34.856Z,28.00
2023-04-28T05:42:07.411Z,28.00
2023-04-28T05:44:37.523Z,28.30
2023-04-28T05:47:08.242Z,28.70
2023-04-28T05:49:37.485Z,28.60
2023-04-28T05:52:08.372Z,28.30
2023-04-28T05:54:38.012Z,29.10
2023-04-28T05:57:07.405Z,29.20
2023-04-28T05:59:37.082Z,29.10
2023-04-28T06:02:08.201Z,29.30
2023-04-28T06:04:40.884Z,29.30
2023-04-28T06:07:10.357Z,28.50
2023-04-28T06:09:40.466Z,28.30
2023-04-28T06:12:09.987Z,28.90
2023-04-28T06:14:40.527Z,28.80
2023-04-28T06:17:12.177Z,28.50
2023-04-28T06:19:41.392Z,28.40
2023-04-28T06:22:11.390Z,28.50
2023-04-28T06:24:42.149Z,28.10
2023-04-28T06:27:14.440Z,27.60
2023-04-28T06:29:43.642Z,26.70
2023-04-28T06:32:14.665Z,26.40
2023-04-28T06:34:44.261Z,25.80
2023-04-28T06:37:14.580Z,25.70
2023-04-28T06:39:43.948Z,25.70
2023-04-28T06:42:13.576Z,25.80
2023-04-28T06:44:45.417Z,25.90
2023-04-28T06:47:16.219Z,25.50
2023-04-28T06:49:47.657Z,25.80
2023-04-28T06:52:17.019Z,25.80
2023-04-28T06:54:46.592Z,25.60
2023-04-28T06:57:16.141Z,25.70
2023-04-28T06:59:46.527Z,25.50
2023-04-28T07:02:17.210Z,25.60
2023-04-28T07:04:46.445Z,25.60
2023-04-28T07:07:16.442Z,25.60
2023-04-28T07:09:48.417Z,25.60
2023-04-28T07:12:17.739Z,25.60
2023-04-28T07:14:47.901Z,25.80
2023-04-28T07:17:19.082Z,25.70
2023-04-28T07:19:50.210Z,25.60
2023-04-28T07:22:19.715Z,25.40
2023-04-28T07:24:48.866Z,24.90
2023-04-28T07:27:18.058Z,24.80
2023-04-28T07:29:47.514Z,24.90
2023-04-28T07:32:18.389Z,24.90
2023-04-28T07:34:47.679Z,24.60
2023-04-28T07:37:16.937Z,24.40
2023-04-28T07:39:46.204Z,24.50
2023-04-28T07:42:15.495Z,24.40
2023-04-28T07:45:00.962Z,23.90
2023-04-28T07:47:31.659Z,23.90
2023-04-28T07:50:05.100Z,24.20
2023-04-28T07:52:34.713Z,24.20
2023-04-28T07:55:04.537Z,24.30
2023-04-28T07:57:33.980Z,24.30
2023-04-28T08:00:03.697Z,24.40
2023-04-28T08:02:42.615Z,24.60
2023-04-28T08:05:12.528Z,24.50
2023-04-28T08:07:42.212Z,24.20
2023-04-28T08:10:12.405Z,23.60
2023-04-28T08:12:42.229Z,23.40
2023-04-28T08:15:12.032Z,23.30
2023-04-28T08:17:43.315Z,23.10
2023-04-28T08:20:15.515Z,22.50
2023-04-28T08:22:44.778Z,22.10
2023-04-28T08:25:14.163Z,21.50
2023-04-28T08:27:43.627Z,21.20
2023-04-28T08:30:13.201Z,21.00
2023-04-28T08:32:44.132Z,20.60
2023-04-28T08:35:13.337Z,20.40
2023-04-28T08:37:42.712Z,20.10
2023-04-28T08:40:12.477Z,20.00
2023-04-28T08:42:41.923Z,19.50
2023-04-28T08:45:15.337Z,18.80
2023-04-28T08:47:47.922Z,18.50
2023-04-28T08:50:20.033Z,18.30
2023-04-28T08:52:49.657Z,18.20
2023-04-28T08:55:20.660Z,18.30
2023-04-28T08:57:52.909Z,18.40
2023-04-28T09:00:22.328Z,18.20
2023-04-28T09:02:53.160Z,18.10
2023-04-28T09:05:22.902Z,18.50
2023-04-28T09:07:52.509Z,18.50
2023-04-28T09:10:23.530Z,18.00
2023-04-28T09:13:11.640Z,17.90
2023-04-28T09:16:01.716Z,17.60
2023-04-28T09:18:33.683Z,17.60
2023-04-28T09:21:07.792Z,17.60
2023-04-28T09:23:47.699Z,17.60
2023-04-28T09:26:17.931Z,18.00
2023-04-28T09:28:47.461Z,18.10
2023-04-28T09:31:28.281Z,18.20
2023-04-28T09:34:02.925Z,18.60
2023-04-28T09:36:32.950Z,18.90
2023-04-28T09:39:03.345Z,19.10
2023-04-28T09:41:40.670Z,19.20
2023-04-28T09:44:19.310Z,19.20
2023-04-28T09:46:49.424Z,19.00
2023-04-28T09:49:20.033Z,18.60
2023-04-28T09:51:50.102Z,18.50
2023-04-28T09:54:22.967Z,18.60
2023-04-28T09:56:53.226Z,18.80
2023-04-28T09:59:23.226Z,19.10
2023-04-28T10:01:53.216Z,19.10
2023-04-28T10:04:24.471Z,18.60
2023-04-28T10:06:53.944Z,18.70
2023-04-28T10:09:26.925Z,19.10
2023-04-28T10:11:56.084Z,19.40
2023-04-28T10:14:26.943Z,19.60
2023-04-28T10:16:57.013Z,19.60
2023-04-28T10:19:27.747Z,19.40
2023-04-28T10:22:07.734Z,19.50
2023-04-28T10:24:55.495Z,19.30
2023-04-28T10:27:32.854Z,19.10
2023-04-28T10:30:28.028Z,19.20
2023-04-28T10:33:27.220Z,19.20
2023-04-28T10:35:58.134Z,19.00
2023-04-28T10:38:27.442Z,19.00
2023-04-28T10:41:01.791Z,19.30
2023-04-28T10:43:40.799Z,19.20
2023-04-28T10:46:12.120Z,19.10
2023-04-28T10:48:58.445Z,18.90
2023-04-28T10:51:35.952Z,18.70
2023-04-28T10:54:20.790Z,18.50
2023-04-28T10:57:21.619Z,18.10
2023-04-28T10:59:51.733Z,18.10
2023-04-28T11:02:51.283Z,18.20
2023-04-28T11:05:21.230Z,17.60
2023-04-28T11:08:35.172Z,17.50
2023-04-28T11:11:20.443Z,17.90
2023-04-28T11:13:50.952Z,18.60
2023-04-28T11:16:23.078Z,18.90
2023-04-28T11:18:55.934Z,18.90
2023-04-28T11:21:28.540Z,19.00
2023-04-28T11:23:58.997Z,19.20
2023-04-28T11:26:30.702Z,19.30
2023-04-28T11:29:00.044Z,19.30
2023-04-28T11:31:29.408Z,19.30
2023-04-28T11:34:05.973Z,19.20
2023-04-28T11:36:37.444Z,19.10
2023-04-28T11:39:08.406Z,19.00
2023-04-28T11:41:40.605Z,18.90
2023-04-28T11:44:14.063Z,18.90
2023-04-28T11:46:55.311Z,18.90
2023-04-28T11:49:25.873Z,19.10
2023-04-28T11:51:55.464Z,19.10
2023-04-28T11:54:26.335Z,19.20
2023-04-28T11:56:58.538Z,19.40
2023-04-28T11:59:29.090Z,19.40
2023-04-28T12:02:00.533Z,19.30
2023-04-28T12:04:32.177Z,19.20
2023-04-28T12:07:06.493Z,19.30
2023-04-28T12:09:36.641Z,18.80
2023-04-28T12:12:08.884Z,17.80
2023-04-28T12:14:56.525Z,17.10
2023-04-28T12:17:27.032Z,16.80
2023-04-28T12:19:56.895Z,17.10
2023-04-28T12:22:26.971Z,17.50
2023-04-28T12:25:09.871Z,17.90
2023-04-28T12:27:41.354Z,18.30
2023-04-28T12:30:30.114Z,18.60
2023-04-28T12:32:59.564Z,18.80
2023-04-28T12:35:30.391Z,18.40
2023-04-28T12:38:00.156Z,18.50
2023-04-28T12:40:29.530Z,18.60
2023-04-28T12:43:00.072Z,18.80
2023-04-28T12:45:30.504Z,19.00
2023-04-28T12:47:59.649Z,19.20
2023-04-28T12:50:32.614Z,19.10
2023-04-28T12:53:01.870Z,18.90
2023-04-28T12:55:31.407Z,18.90
2023-04-28T12:58:02.240Z,19.10
2023-04-28T13:00:31.960Z,19.30
2023-04-28T13:03:01.415Z,19.30
2023-04-28T13:05:31.058Z,19.10
2023-04-28T13:08:00.500Z,19.00
2023-04-28T13:10:29.975Z,19.00
2023-04-28T13:12:59.485Z,19.10
2023-04-28T13:15:59.020Z,19.20
2023-04-28T13:18:28.507Z,19.20
2023-04-28T13:20:57.797Z,19.00
2023-04-28T13:23:27.202Z,18.90
2023-04-28T13:25:56.468Z,18.90
2023-04-28T13:28:25.794Z,18.90
2023-04-28T13:30:54.985Z,18.70
2023-04-28T13:33:31.287Z,18.60
2023-04-28T13:36:00.498Z,18.20
2023-04-28T13:38:29.704Z,17.80
2023-04-28T13:40:58.869Z,17.70
2023-04-28T13:43:56.902Z,17.60
2023-04-28T13:46:26.343Z,17.70
2023-04-28T13:48:57.466Z,17.60
2023-04-28T13:51:26.640Z,17.60
2023-04-28T13:53:56.088Z,17.70
2023-04-28T13:56:25.396Z,17.50
2023-04-28T13:58:54.886Z,17.60
2023-04-28T14:01:25.462Z,17.70
2023-04-28T14:03:54.907Z,17.40
2023-04-28T14:06:26.279Z,17.10
2023-04-28T14:08:55.676Z,17.20
2023-04-28T14:11:24.927Z,17.30
2023-04-28T14:13:54.308Z,17.20
2023-04-28T14:16:23.849Z,17.20
2023-04-28T14:18:53.358Z,17.40
2023-04-28T14:21:22.574Z,17.60
2023-04-28T14:23:53.219Z,17.90
2023-04-28T14:26:24.044Z,18.00
2023-04-28T14:28:54.250Z,18.20
2023-04-28T14:31:24.148Z,18.50
2023-04-28T14:33:53.747Z,18.60
2023-04-28T14:36:23.994Z,18.70
2023-04-28T14:38:55.143Z,18.70
2023-04-28T14:41:24.395Z,18.60
2023-04-28T14:43:53.981Z,18.60
2023-04-28T14:46:23.732Z,18.60
2023-04-28T14:48:54.036Z,18.60
2023-04-28T14:51:23.638Z,18.60
2023-04-28T14:53:54.733Z,18.30
2023-04-28T14:56:24.630Z,18.10
2023-04-28T14:58:54.456Z,18.10
2023-04-28T15:01:24.276Z,17.90
2023-04-28T15:03:53.782Z,18.00
2023-04-28T15:06:23.220Z,18.00
2023-04-28T15:08:53.994Z,17.90
2023-04-28T15:11:23.532Z,17.70
2023-04-28T15:13:52.846Z,17.70
2023-04-28T15:16:22.369Z,17.70
2023-04-28T15:18:51.705Z,17.50
2023-04-28T15:21:21.010Z,17.10
2023-04-28T15:23:50.235Z,16.60
2023-04-28T15:26:20.884Z,16.70
2023-04-28T15:28:50.358Z,16.90
2023-04-28T15:31:19.866Z,17.10
2023-04-28T15:33:49.339Z,16.90
2023-04-28T15:36:20.643Z,17.00
2023-04-28T15:38:50.430Z,17.10
2023-04-28T15:41:21.156Z,17.20
2023-04-28T15:43:50.978Z,17.50
2023-04-28T15:46:20.370Z,17.50
2023-04-28T15:48:50.179Z,17.60
2023-04-28T15:51:19.433Z,17.70
2023-04-28T15:53:50.884Z,17.60
2023-04-28T15:56:21.662Z,17.70
2023-04-28T15:58:51.284Z,17.70
2023-04-28T16:01:21.349Z,17.60
2023-04-28T16:03:50.798Z,17.40
2023-04-28T16:06:20.185Z,17.30
2023-04-28T16:08:49.567Z,17.20
2023-04-28T16:11:20.670Z,17.20
2023-04-28T16:13:51.636Z,17.20
2023-04-28T16:16:21.573Z,17.30
2023-04-28T16:18:50.835Z,17.10
2023-04-28T16:21:20.610Z,16.90
2023-04-28T16:23:52.445Z,16.80
2023-04-28T16:26:22.284Z,16.80
2023-04-28T16:28:53.236Z,16.80
2023-04-28T16:31:22.489Z,16.70
2023-04-28T16:33:52.268Z,16.70
2023-04-28T16:36:21.820Z,16.70
2023-04-28T16:38:51.232Z,16.60
2023-04-28T16:41:20.548Z,16.60
2023-04-28T16:43:49.728Z,16.50
2023-04-28T16:46:20.728Z,16.50
2023-04-28T16:48:50.194Z,16.30
2023-04-28T16:51:20.100Z,16.20
2023-04-28T16:53:49.870Z,16.10
2023-04-28T16:56:19.191Z,16.00
2023-04-28T16:58:48.581Z,15.50
2023-04-28T17:01:19.521Z,15.30
2023-04-28T17:03:48.932Z,15.30
2023-04-28T17:06:18.182Z,15.10
2023-04-28T17:08:47.379Z,15.00
2023-04-28T17:11:18.938Z,14.80
2023-04-28T17:13:49.073Z,14.60
2023-04-28T17:16:19.947Z,14.50
2023-04-28T17:18:49.234Z,14.50
2023-04-28T17:21:18.659Z,14.40
2023-04-28T17:23:47.811Z,14.20
2023-04-28T17:26:17.713Z,14.10
2023-04-28T17:28:46.888Z,14.10
2023-04-28T17:31:16.235Z,14.00
2023-04-28T17:33:47.040Z,13.90
2023-04-28T17:36:16.285Z,13.80
2023-04-28T17:38:45.538Z,13.90
2023-04-28T17:41:15.443Z,13.80
2023-04-28T17:43:46.216Z,13.80
2023-04-28T17:46:16.241Z,13.90
2023-04-28T17:48:46.853Z,13.80
2023-04-28T17:51:16.228Z,13.60
2023-04-28T17:53:46.598Z,13.40
2023-04-28T17:56:16.608Z,13.30
2023-04-28T17:58:45.897Z,13.00
2023-04-28T18:01:15.486Z,12.90
2023-04-28T18:03:48.686Z,13.00
2023-04-28T18:06:18.091Z,12.90
2023-04-28T18:08:47.335Z,12.80
2023-04-28T18:11:18.566Z,12.70
2023-04-28T18:13:48.540Z,12.70
2023-04-28T18:16:18.060Z,12.70
2023-04-28T18:18:49.687Z,12.60
2023-04-28T18:21:19.538Z,12.60
2023-04-28T18:23:49.206Z,12.50
2023-04-28T18:26:21.298Z,12.50
2023-04-28T18:28:51.142Z,12.40
2023-04-28T18:31:22.057Z,12.40
2023-04-28T18:33:55.720Z,12.30
2023-04-28T18:36:25.901Z,12.30
2023-04-28T18:38:56.317Z,12.20
2023-04-28T18:41:26.278Z,12.10
2023-04-28T18:43:59.625Z,12.10
2023-04-28T18:46:30.912Z,12.00
2023-04-28T18:49:03.292Z,12.00
2023-04-28T18:51:33.875Z,12.00
2023-04-28T18:54:05.283Z,11.80
2023-04-28T18:56:36.080Z,11.70
2023-04-28T18:59:06.661Z,11.70
2023-04-28T19:01:37.461Z,11.70
2023-04-28T19:04:09.517Z,11.60
2023-04-28T19:06:40.074Z,11.50
2023-04-28T19:09:10.761Z,11.50
2023-04-28T19:11:42.003Z,11.30
2023-04-28T19:14:12.496Z,11.20
2023-04-28T19:16:42.948Z,11.20
2023-04-28T19:19:15.780Z,11.20
2023-04-28T19:21:47.204Z,11.00
2023-04-28T19:24:31.212Z,11.00
2023-04-28T19:27:03.304Z,11.00
2023-04-28T19:29:33.526Z,11.00
2023-04-28T19:32:03.539Z,10.90
2023-04-28T19:34:35.450Z,10.80
2023-04-28T19:37:10.272Z,10.70
2023-04-28T19:39:41.549Z,10.70
2023-04-28T19:42:12.879Z,10.70
2023-04-28T19:44:43.110Z,10.60
2023-04-28T19:47:15.012Z,10.50
2023-04-28T19:49:47.101Z,10.60
2023-04-28T19:52:17.914Z,10.40
2023-04-28T19:54:48.410Z,10.40
2023-04-28T19:57:21.220Z,10.30
2023-04-28T19:59:53.739Z,10.40
2023-04-28T20:02:24.575Z,10.30
2023-04-28T20:04:57.499Z,10.30
2023-04-28T20:07:28.538Z,10.30
2023-04-28T20:09:59.316Z,10.30
2023-04-28T20:12:30.247Z,10.30
2023-04-28T20:15:01.498Z,10.30
2023-04-28T20:17:31.565Z,10.20
2023-04-28T20:20:06.419Z,10.10
2023-04-28T20:22:36.705Z,10.00
2023-04-28T20:25:07.793Z,10.00
2023-04-28T20:27:38.549Z,9.90
2023-04-28T20:30:09.809Z,9.80
2023-04-28T20:32:39.987Z,9.70
2023-04-28T20:35:11.519Z,9.60
2023-04-28T20:37:41.031Z,9.60
2023-04-28T20:40:11.882Z,9.60
2023-04-28T20:42:41.121Z,9.60
2023-04-28T20:45:11.664Z,9.70
2023-04-28T20:47:41.018Z,9.70
2023-04-28T20:50:13.112Z,9.60
2023-04-28T20:52:42.911Z,9.60
2023-04-28T20:55:12.784Z,9.50
2023-04-28T20:57:42.135Z,9.50
2023-04-28T21:00:13.256Z,9.60
2023-04-28T21:02:42.902Z,9.60
2023-04-28T21:05:13.974Z,9.60
2023-04-28T21:07:43.169Z,9.60
2023-04-28T21:10:12.708Z,9.50
2023-04-28T21:12:42.009Z,9.40
2023-04-28T21:15:12.069Z,9.40
2023-04-28T21:17:41.434Z,9.50
2023-04-28T21:20:13.534Z,9.50
2023-04-28T21:22:43.139Z,9.40
2023-04-28T21:25:12.389Z,9.40
2023-04-28T21:27:41.888Z,9.40
2023-04-28T21:30:13.241Z,9.40
2023-04-28T21:32:42.848Z,9.40
2023-04-28T21:35:13.890Z,9.40
2023-04-28T21:37:43.114Z,9.40
2023-04-28T21:40:12.843Z,9.30
2023-04-28T21:42:42.034Z,9.30
2023-04-28T21:45:12.839Z,9.30
2023-04-28T21:47:43.540Z,9.30
2023-04-28T21:50:14.419Z,9.20
2023-04-28T21:52:43.643Z,9.30
2023-04-28T21:55:12.951Z,9.20
2023-04-28T21:57:42.327Z,9.10
2023-04-28T22:00:12.849Z,9.10
2023-04-28T22:02:45.252Z,9.20
2023-04-28T22:05:16.351Z,9.20
2023-04-28T22:07:45.769Z,9.20
2023-04-28T22:10:15.236Z,9.20
2023-04-28T22:12:44.390Z,9.00
2023-04-28T22:15:13.807Z,9.00
2023-04-28T22:17:43.503Z,9.00
2023-04-28T22:20:13.752Z,9.00
2023-04-28T22:22:44.525Z,9.00
2023-04-28T22:25:13.787Z,8.90
2023-04-28T22:27:43.022Z,8.80
2023-04-28T22:30:13.293Z,8.90
2023-04-28T22:32:44.888Z,8.80
2023-04-28T22:35:14.332Z,8.80
2023-04-28T22:37:45.109Z,8.80
2023-04-28T22:40:14.539Z,8.80
2023-04-28T22:42:44.707Z,8.80
2023-04-28T22:45:14.357Z,8.70
2023-04-28T22:47:43.692Z,8.70
2023-04-28T22:50:13.806Z,8.60
2023-04-28T22:52:44.701Z,8.50
2023-04-28T22:55:14.603Z,8.50
2023-04-28T22:57:43.809Z,8.40
2023-04-28T23:00:15.891Z,8.50
2023-04-28T23:02:46.152Z,8.40
2023-04-28T23:05:15.663Z,8.40
2023-04-28T23:07:46.524Z,8.40
2023-04-28T23:10:15.828Z,8.40
2023-04-28T23:12:45.251Z,8.40
2023-04-28T23:15:14.606Z,8.30
2023-04-28T23:17:44.815Z,8.30
2023-04-28T23:20:14.474Z,8.20
2023-04-28T23:22:43.730Z,8.20
2023-04-28T23:25:14.676Z,8.20
2023-04-28T23:27:43.970Z,8.10
2023-04-28T23:30:14.501Z,8.10
2023-04-28T23:32:43.946Z,8.10
2023-04-28T23:35:14.234Z,8.00
2023-04-28T23:37:43.363Z,8.00
2023-04-28T23:40:14.937Z,8.00
2023-04-28T23:42:44.205Z,8.00
2023-04-28T23:45:13.570Z,8.00
2023-04-28T23:47:43.168Z,8.00
2023-04-28T23:50:13.001Z,8.00
2023-04-28T23:52:43.103Z,7.90
2023-04-28T23:55:14.018Z,7.90
2023-04-28T23:57:43.280Z,7.90
